Pays
Station

 

Conditions  météo  pour  Roanoke, Roanoke Regional Airport  -  Etats-Unis    Etats-Unis

  
-4 °C
    
 
 

METAR pour Roanoke, Roanoke Regional Airport :

KROA 200654Z 30009KT 10SM OVC038 M04/M12 A3023 RMK AO2 SLP245 T10391117

 

Voici le bulletin pour Roanoke, Roanoke Regional Airport - Etats-Unis.
 
Le bulletin a été fait il y a 19 minutes, à 06:54 UTC .
Le vent soufflait à la vitesse de 4.6 mètres par seconde de Ouest/Nord-ouest (300°).
 
La température était de -4 °C, avec un point de rosée à -12 °C.
La température ressentie était de -10 °C.
 
La pression atmosphérique était de 1024 hPa.
L'humidité relative était de 53.6%.
 
Le ciel était nuageux à partir d'une hauteur de 1158 mètres
 
La visibilité globale était de 16.1 kilomètres.
 

 
 
 

Pays :   A   B   C   D   E   F   G   H   I   J   K   L   M   N   O   P   Q   R   S   T   U   V   W   Y   Z

 

Partenaires :  Info Météo avec Met'info
Météo Marine avec MeteoMarine.net
Infos Site  |  Infos Légales  |  Crédits  |  Confidentialité
Contactez-nous  |  Ajouter aux favoris
© 2013-2020 METAR - Tous droits réservés